createdAt,value
2023-05-24T00:03:39.429Z,78.19
2023-05-24T00:08:41.565Z,78.17
2023-05-24T00:13:43.445Z,78.25
2023-05-24T00:18:47.032Z,78.22
2023-05-24T00:23:51.841Z,78.46
2023-05-24T00:28:53.558Z,78.47
2023-05-24T00:33:55.710Z,78.77
2023-05-24T00:38:57.460Z,78.68
2023-05-24T00:43:59.489Z,78.98
2023-05-24T00:49:01.920Z,78.74
2023-05-24T00:54:05.011Z,79.14
2023-05-24T00:59:06.988Z,79.03
2023-05-24T01:04:08.916Z,79.17
2023-05-24T01:09:23.123Z,78.94
2023-05-24T01:14:41.795Z,78.82
2023-05-24T01:19:51.183Z,78.88
2023-05-24T01:25:17.212Z,78.95
2023-05-24T01:30:19.131Z,78.43
2023-05-24T01:35:21.076Z,78.62
2023-05-24T01:40:23.737Z,78.53
2023-05-24T01:45:35.708Z,78.50
2023-05-24T01:50:45.747Z,78.35
2023-05-24T01:55:53.439Z,78.42
2023-05-24T02:00:56.251Z,78.54
2023-05-24T02:05:58.031Z,78.39
2023-05-24T02:11:00.125Z,78.46
2023-05-24T02:16:02.503Z,78.61
2023-05-24T02:21:04.225Z,78.66
2023-05-24T02:26:06.368Z,78.62
2023-05-24T02:31:08.653Z,78.66
2023-05-24T02:36:11.051Z,78.67
2023-05-24T02:41:17.831Z,78.66
2023-05-24T02:46:19.684Z,78.59
2023-05-24T02:51:21.496Z,78.34
2023-05-24T02:56:23.800Z,78.38
2023-05-24T03:01:25.689Z,78.53
2023-05-24T03:06:28.038Z,78.59
2023-05-24T03:11:29.775Z,78.40
2023-05-24T03:16:33.137Z,78.70
2023-05-24T03:21:34.926Z,78.34
2023-05-24T03:26:37.852Z,78.62
2023-05-24T03:31:40.289Z,78.57
2023-05-24T03:36:43.312Z,78.39
2023-05-24T03:41:45.194Z,78.47
2023-05-24T03:46:47.638Z,78.47
2023-05-24T03:51:49.431Z,78.34
2023-05-24T03:56:53.323Z,78.63
2023-05-24T04:01:55.482Z,78.62
2023-05-24T04:06:58.140Z,78.39
2023-05-24T04:11:59.846Z,78.39
2023-05-24T04:17:04.507Z,78.17
2023-05-24T04:22:06.557Z,77.56
2023-05-24T04:27:11.934Z,77.56
2023-05-24T04:32:15.370Z,77.48
2023-05-24T04:37:17.477Z,77.83
2023-05-24T04:42:20.915Z,77.99
2023-05-24T04:47:22.680Z,78.34
2023-05-24T04:52:24.562Z,78.00
2023-05-24T04:57:26.518Z,77.83
2023-05-24T05:02:28.385Z,77.55
2023-05-24T05:07:30.283Z,77.54
2023-05-24T05:12:32.035Z,77.46
2023-05-24T05:17:33.946Z,77.65
2023-05-24T05:22:35.876Z,77.49
2023-05-24T05:27:37.599Z,77.29
2023-05-24T05:32:40.214Z,77.22
2023-05-24T05:37:42.134Z,77.20
2023-05-24T05:42:43.880Z,77.23
2023-05-24T05:47:45.793Z,77.12
2023-05-24T05:52:47.566Z,76.96
2023-05-24T05:57:49.281Z,77.00
2023-05-24T06:02:51.565Z,76.92
2023-05-24T06:07:53.474Z,76.91
2023-05-24T06:12:55.681Z,76.55
2023-05-24T06:17:57.695Z,76.97
2023-05-24T06:23:00.139Z,77.02
2023-05-24T06:28:01.874Z,77.10
2023-05-24T06:33:04.318Z,76.91
2023-05-24T06:38:06.167Z,75.91
2023-05-24T06:43:07.932Z,75.36
2023-05-24T06:48:09.799Z,75.57
2023-05-24T06:53:11.750Z,74.43
2023-05-24T06:58:14.557Z,73.95
2023-05-24T07:03:16.563Z,73.08
2023-05-24T07:08:18.338Z,73.31
2023-05-24T07:13:20.044Z,72.39
2023-05-24T07:18:21.795Z,71.80
2023-05-24T07:23:23.623Z,71.29
2023-05-24T07:28:25.306Z,71.41
2023-05-24T07:33:27.197Z,70.97
2023-05-24T07:38:29.325Z,70.99
2023-05-24T07:43:31.119Z,70.53
2023-05-24T07:48:32.889Z,70.36
2023-05-24T07:53:34.822Z,69.46
2023-05-24T07:58:36.616Z,69.19
2023-05-24T08:03:39.501Z,69.02
2023-05-24T08:08:41.458Z,68.24
2023-05-24T08:13:44.362Z,68.13
2023-05-24T08:18:46.621Z,66.81
2023-05-24T08:23:48.296Z,66.14
2023-05-24T08:28:50.153Z,64.55
2023-05-24T08:33:52.835Z,64.23
2023-05-24T08:38:54.618Z,64.19
2023-05-24T08:44:01.397Z,63.94
2023-05-24T08:49:04.620Z,64.05
2023-05-24T08:54:07.584Z,63.64
2023-05-24T08:59:10.567Z,64.18
2023-05-24T09:04:13.409Z,64.26
2023-05-24T09:09:18.587Z,64.63
2023-05-24T09:14:20.443Z,65.17
2023-05-24T09:19:22.459Z,65.23
2023-05-24T09:24:24.358Z,66.14
2023-05-24T09:29:26.211Z,66.20
2023-05-24T09:34:27.900Z,66.03
2023-05-24T09:39:29.741Z,65.90
2023-05-24T09:44:32.253Z,66.10
2023-05-24T09:49:37.262Z,65.88
2023-05-24T09:54:40.184Z,65.84
2023-05-24T09:59:42.991Z,64.82
2023-05-24T10:04:45.288Z,64.14
2023-05-24T10:09:47.387Z,63.97
2023-05-24T10:14:51.098Z,63.65
2023-05-24T10:19:52.940Z,63.73
2023-05-24T10:24:59.968Z,63.20
2023-05-24T10:30:14.255Z,63.41
2023-05-24T10:35:18.278Z,62.33
2023-05-24T10:40:22.126Z,62.27
2023-05-24T10:45:36.568Z,61.93
2023-05-24T10:50:38.306Z,62.61
2023-05-24T10:55:59.325Z,63.19
2023-05-24T11:01:03.032Z,63.29
2023-05-24T11:06:05.292Z,62.87
2023-05-24T11:11:23.312Z,62.43
2023-05-24T11:16:37.536Z,61.93
2023-05-24T11:21:43.484Z,61.74
2023-05-24T11:26:46.327Z,60.80
2023-05-24T11:31:57.776Z,60.98
2023-05-24T11:37:01.929Z,61.17
2023-05-24T11:42:08.057Z,60.67
2023-05-24T11:47:09.825Z,61.11
2023-05-24T11:52:11.824Z,61.04
2023-05-24T11:57:14.111Z,61.40
2023-05-24T12:02:16.731Z,61.58
2023-05-24T12:07:18.721Z,61.31
2023-05-24T12:12:30.297Z,61.90
2023-05-24T12:17:36.286Z,61.89
2023-05-24T12:22:38.358Z,61.36
2023-05-24T12:27:47.703Z,61.01
2023-05-24T12:32:50.599Z,60.89
2023-05-24T12:38:00.148Z,60.92
2023-05-24T12:43:04.042Z,60.92
2023-05-24T12:48:06.216Z,60.96
2023-05-24T12:53:08.767Z,60.71
2023-05-24T12:58:14.216Z,60.71
2023-05-24T13:03:16.161Z,60.50
2023-05-24T13:08:18.180Z,60.20
2023-05-24T13:13:20.070Z,60.30
2023-05-24T13:18:21.770Z,59.68
2023-05-24T13:23:23.704Z,59.52
2023-05-24T13:28:26.361Z,59.60
2023-05-24T13:33:28.079Z,59.23
2023-05-24T13:38:29.998Z,59.03
2023-05-24T13:43:31.902Z,59.00
2023-05-24T13:48:34.041Z,59.07
2023-05-24T13:53:36.233Z,59.52
2023-05-24T13:58:37.835Z,59.77
2023-05-24T14:03:42.511Z,59.51
2023-05-24T14:08:44.478Z,59.47
2023-05-24T14:18:51.696Z,59.26
2023-05-24T14:23:53.647Z,59.03
2023-05-24T14:28:56.727Z,59.36
2023-05-24T14:33:58.859Z,59.46
2023-05-24T14:39:00.855Z,59.55
2023-05-24T14:44:02.886Z,59.85
2023-05-24T14:49:04.774Z,59.70
2023-05-24T14:54:06.813Z,59.72
2023-05-24T14:59:08.616Z,60.18
2023-05-24T15:04:10.342Z,60.60
2023-05-24T15:09:13.392Z,60.89
2023-05-24T15:14:15.189Z,60.47
2023-05-24T15:19:16.887Z,60.97
2023-05-24T15:24:18.683Z,60.66
2023-05-24T15:29:21.404Z,61.50
2023-05-24T15:34:23.811Z,61.53
2023-05-24T15:39:26.447Z,61.26
2023-05-24T15:44:28.143Z,61.89
2023-05-24T15:49:29.880Z,61.66
2023-05-24T15:54:32.249Z,61.51
2023-05-24T15:59:36.824Z,62.15
2023-05-24T16:04:39.314Z,62.50
2023-05-24T16:09:41.360Z,62.90
2023-05-24T16:14:43.154Z,62.64
2023-05-24T16:19:49.591Z,62.56
2023-05-24T16:24:51.712Z,63.34
2023-05-24T16:29:53.371Z,63.78
2023-05-24T16:34:57.203Z,64.49
2023-05-24T16:39:59.620Z,64.74
2023-05-24T16:45:01.717Z,64.85
2023-05-24T16:50:04.099Z,64.22
2023-05-24T16:55:06.630Z,64.44
2023-05-24T17:00:09.783Z,64.22
2023-05-24T17:05:11.785Z,64.29
2023-05-24T17:10:13.458Z,64.46
2023-05-24T17:15:15.254Z,64.32
2023-05-24T17:20:17.219Z,64.07
2023-05-24T17:25:18.969Z,63.70
2023-05-24T17:30:21.106Z,64.18
2023-05-24T17:35:23.283Z,64.26
2023-05-24T17:40:25.499Z,64.29
2023-05-24T17:45:27.302Z,64.79
2023-05-24T17:50:29.132Z,65.43
2023-05-24T17:55:31.184Z,65.78
2023-05-24T18:00:32.913Z,66.11
2023-05-24T18:05:34.690Z,66.07
2023-05-24T18:10:37.022Z,66.60
2023-05-24T18:15:38.801Z,66.69
2023-05-24T18:20:40.765Z,67.06
2023-05-24T18:25:44.911Z,67.71
2023-05-24T18:30:46.844Z,68.23
2023-05-24T18:35:48.561Z,68.43
2023-05-24T18:40:50.554Z,68.59
2023-05-24T18:45:52.256Z,68.41
2023-05-24T18:50:54.872Z,68.73
2023-05-24T18:55:56.568Z,69.11
2023-05-24T19:00:58.366Z,69.27
2023-05-24T19:06:00.306Z,69.41
2023-05-24T19:11:02.113Z,69.72
2023-05-24T19:16:03.904Z,69.62
2023-05-24T19:21:05.875Z,69.89
2023-05-24T19:26:08.039Z,69.96
2023-05-24T19:31:10.056Z,70.00
2023-05-24T19:36:11.802Z,69.88
2023-05-24T19:41:13.771Z,70.08
2023-05-24T19:46:15.544Z,70.31
2023-05-24T19:51:17.486Z,70.59
2023-05-24T19:56:20.783Z,70.51
2023-05-24T20:01:22.758Z,70.82
2023-05-24T20:06:24.549Z,70.45
2023-05-24T20:11:26.683Z,70.81
2023-05-24T20:16:29.531Z,70.70
2023-05-24T20:21:32.817Z,70.76
2023-05-24T20:26:35.089Z,70.90
2023-05-24T20:31:37.796Z,70.96
2023-05-24T20:36:40.850Z,70.79
2023-05-24T20:41:43.981Z,71.06
2023-05-24T20:46:45.638Z,71.12
2023-05-24T20:51:47.342Z,71.21
2023-05-24T20:56:49.160Z,71.31
2023-05-24T21:01:51.114Z,71.63
2023-05-24T21:06:55.123Z,71.37
2023-05-24T21:11:58.728Z,71.46
2023-05-24T21:17:00.608Z,71.47
2023-05-24T21:22:02.596Z,71.73
2023-05-24T21:27:04.924Z,71.85
2023-05-24T21:32:08.270Z,72.32
2023-05-24T21:37:10.117Z,72.33
2023-05-24T21:42:12.553Z,72.66
2023-05-24T21:47:15.619Z,72.39
2023-05-24T21:52:19.581Z,72.61
2023-05-24T21:57:21.507Z,72.56
2023-05-24T22:02:23.272Z,72.88
2023-05-24T22:07:25.197Z,73.17
2023-05-24T22:12:27.180Z,73.15
2023-05-24T22:17:29.492Z,73.48
2023-05-24T22:22:31.300Z,73.36
2023-05-24T22:27:35.956Z,73.77
2023-05-24T22:32:37.949Z,73.72
2023-05-24T22:37:39.735Z,74.02
2023-05-24T22:42:42.053Z,73.71
2023-05-24T22:47:43.929Z,74.01
2023-05-24T22:52:46.742Z,73.71
2023-05-24T22:57:48.742Z,73.83
2023-05-24T23:02:50.584Z,74.09
2023-05-24T23:07:52.846Z,73.91
2023-05-24T23:12:55.424Z,74.01
2023-05-24T23:17:58.270Z,74.28
2023-05-24T23:23:05.955Z,73.75
2023-05-24T23:28:07.783Z,73.88
2023-05-24T23:33:09.636Z,73.96
2023-05-24T23:38:13.695Z,73.85
2023-05-24T23:43:16.564Z,73.93
2023-05-24T23:48:21.817Z,74.30
2023-05-24T23:53:23.621Z,74.14
2023-05-24T23:58:25.704Z,74.44
